Time;durP1;ratioP1;P1;durP2;ratioP2;P2;SDS_P1;SDS_P2;PMS_P1;PMS_P2;Temp;Humidity;BMP_temperature;BMP_pressure;BME280_temperature;BME280_humidity;BME280_pressure;Samples;Min_cycle;Max_cycle;Signal;HPM_P1;HPM_P2
2022/07/04 00:01:04;;;;;;;1.70;1.45;;;15.60;99.90;;;;;;5021241;28;20504;-76
2022/07/04 00:03:29;;;;;;;10.15;2.42;;;15.60;99.90;;;;;;5020088;28;20049;-76
2022/07/04 00:05:55;;;;;;;2.67;2.15;;;15.50;99.90;;;;;;5019803;28;20096;-77
2022/07/04 00:08:21;;;;;;;4.28;1.60;;;15.40;99.90;;;;;;5021354;28;20078;-76
2022/07/04 00:10:46;;;;;;;1.80;1.70;;;15.40;99.90;;;;;;5020952;28;20111;-77
2022/07/04 00:13:12;;;;;;;4.90;1.65;;;15.40;99.90;;;;;;5021523;28;20116;-76
2022/07/04 00:15:37;;;;;;;2.42;1.90;;;15.40;99.90;;;;;;5020316;28;20095;-76
2022/07/04 00:18:03;;;;;;;1.40;1.17;;;15.40;99.90;;;;;;5019487;28;20351;-76
2022/07/04 00:20:29;;;;;;;3.10;2.15;;;15.40;99.90;;;;;;5021589;28;20551;-77
2022/07/04 00:22:54;;;;;;;3.30;1.70;;;15.40;99.90;;;;;;5020499;28;20048;-77
2022/07/04 00:25:20;;;;;;;1.65;1.55;;;15.40;99.90;;;;;;5019723;28;20081;-76
2022/07/04 00:27:46;;;;;;;3.78;2.15;;;15.40;99.90;;;;;;5020575;28;20041;-77
2022/07/04 00:30:12;;;;;;;1.70;1.50;;;15.40;99.90;;;;;;5021245;28;20051;-76
2022/07/04 00:32:38;;;;;;;1.52;1.42;;;15.40;99.90;;;;;;5020626;28;20515;-76
2022/07/04 00:35:05;;;;;;;2.08;1.50;;;15.40;99.90;;;;;;5020422;28;20049;-77
2022/07/04 00:37:30;;;;;;;2.25;1.42;;;15.40;99.90;;;;;;5019534;28;20050;-77
2022/07/04 00:39:56;;;;;;;1.75;1.45;;;15.40;99.90;;;;;;5020511;28;20046;-76
2022/07/04 00:42:21;;;;;;;1.88;1.77;;;15.40;99.90;;;;;;5019736;28;20037;-76
2022/07/04 00:44:47;;;;;;;3.50;1.52;;;15.40;99.90;;;;;;5018778;28;20098;-77
2022/07/04 00:47:12;;;;;;;2.05;1.45;;;15.40;99.90;;;;;;5020011;28;20045;-76
2022/07/04 00:49:39;;;;;;;1.85;1.75;;;15.40;99.90;;;;;;5020669;28;20049;-76
2022/07/04 00:52:06;;;;;;;3.38;1.40;;;15.40;99.90;;;;;;5018925;28;20120;-77
2022/07/04 00:54:32;;;;;;;1.80;1.67;;;15.40;99.90;;;;;;5020181;28;20539;-76
2022/07/04 00:57:00;;;;;;;3.95;2.28;;;15.30;99.90;;;;;;5019224;28;20042;-77
2022/07/04 00:59:26;;;;;;;3.33;1.85;;;15.30;99.90;;;;;;5020163;28;20068;-77
2022/07/04 01:01:51;;;;;;;1.85;1.75;;;15.30;99.90;;;;;;5019475;28;20042;-76
2022/07/04 01:04:18;;;;;;;2.33;1.92;;;15.30;99.90;;;;;;5002708;28;20053;-77
2022/07/04 01:06:47;;;;;;;4.82;2.08;;;15.30;99.90;;;;;;5020430;28;20080;-77
2022/07/04 01:09:13;;;;;;;2.38;1.83;;;15.20;99.90;;;;;;5020440;28;20047;-77
2022/07/04 01:11:38;;;;;;;3.75;3.03;;;15.30;99.90;;;;;;5020437;28;20121;-77
2022/07/04 01:14:06;;;;;;;3.55;2.30;;;15.30;99.90;;;;;;5018836;28;20050;-76
2022/07/04 01:16:32;;;;;;;1.80;1.67;;;15.30;99.90;;;;;;5019675;28;20068;-76
2022/07/04 01:18:58;;;;;;;1.92;1.83;;;15.30;99.90;;;;;;5018717;28;20049;-77
2022/07/04 01:21:23;;;;;;;2.13;1.67;;;15.20;99.90;;;;;;5020582;28;20045;-77
2022/07/04 01:23:49;;;;;;;1.58;1.48;;;15.20;99.90;;;;;;5019892;28;20030;-77
2022/07/04 01:26:14;;;;;;;2.85;2.08;;;15.10;99.90;;;;;;5020300;28;20045;-77
2022/07/04 01:28:40;;;;;;;1.65;1.45;;;15.20;99.90;;;;;;5020331;28;20042;-77
2022/07/04 01:31:06;;;;;;;3.53;2.20;;;15.10;99.90;;;;;;5020133;28;20526;-77
2022/07/04 01:33:32;;;;;;;2.03;1.92;;;15.10;99.90;;;;;;5019761;28;20041;-77
2022/07/04 01:35:58;;;;;;;2.13;1.85;;;15.10;99.90;;;;;;5020023;28;20041;-77
2022/07/04 01:38:24;;;;;;;3.10;1.65;;;15.20;99.90;;;;;;5020775;28;20050;-76
2022/07/04 01:40:50;;;;;;;3.30;2.38;;;15.20;99.90;;;;;;5018453;28;20048;-77
2022/07/04 01:43:16;;;;;;;4.35;2.08;;;15.10;99.90;;;;;;5020109;28;20094;-77
2022/07/04 01:45:41;;;;;;;2.25;2.05;;;15.10;99.90;;;;;;5018958;28;20045;-77
2022/07/04 01:48:10;;;;;;;2.00;1.75;;;15.10;99.90;;;;;;5018733;28;20049;-77
2022/07/04 01:50:36;;;;;;;2.40;2.30;;;15.10;99.90;;;;;;5020612;28;20045;-76
2022/07/04 01:53:02;;;;;;;1.50;1.40;;;15.10;99.90;;;;;;5019306;28;20083;-77
2022/07/04 01:55:29;;;;;;;1.52;1.35;;;15.10;99.90;;;;;;5021534;28;20127;-77
2022/07/04 01:57:55;;;;;;;4.78;1.33;;;15.10;99.90;;;;;;5023955;28;20072;-77
2022/07/04 02:03:05;;;;;;;3.30;2.08;;;15.10;99.90;;;;;;5021027;28;20079;-77
2022/07/04 02:05:30;;;;;;;2.67;1.90;;;15.00;99.90;;;;;;5022521;28;20504;-77
2022/07/04 02:07:56;;;;;;;3.72;1.60;;;15.00;99.90;;;;;;5022917;28;20061;-77
2022/07/04 02:10:22;;;;;;;1.67;1.48;;;14.90;99.90;;;;;;5023639;28;20129;-77
2022/07/04 02:13:03;;;;;;;5.43;1.52;;;14.90;99.90;;;;;;5021593;28;20049;-77
2022/07/04 02:15:37;;;;;;;1.48;1.35;;;14.90;99.90;;;;;;5022749;28;20045;-77
2022/07/04 02:18:05;;;;;;;2.10;1.90;;;14.90;99.90;;;;;;5022669;28;20246;-77
2022/07/04 02:20:31;;;;;;;3.17;1.80;;;14.80;99.90;;;;;;5023376;28;20033;-77
2022/07/04 02:22:57;;;;;;;1.10;1.08;;;14.90;99.90;;;;;;5022743;28;20471;-77
2022/07/04 02:25:23;;;;;;;2.13;1.83;;;14.90;99.90;;;;;;5022022;28;20042;-77
2022/07/04 02:27:49;;;;;;;2.97;2.08;;;14.90;99.90;;;;;;5022698;28;20042;-77
2022/07/04 02:30:14;;;;;;;1.88;1.73;;;15.00;99.90;;;;;;5023087;28;20075;-77
2022/07/04 02:32:41;;;;;;;3.50;1.75;;;15.00;99.90;;;;;;5021766;28;20037;-77
2022/07/04 02:35:08;;;;;;;2.33;1.33;;;15.00;99.90;;;;;;5022239;28;20046;-77
2022/07/04 02:37:33;;;;;;;3.03;2.40;;;15.00;99.90;;;;;;5022946;28;20199;-77
2022/07/04 02:39:59;;;;;;;6.47;2.03;;;15.10;99.90;;;;;;5022572;28;20118;-77
2022/07/04 02:42:28;;;;;;;3.35;1.80;;;15.10;99.90;;;;;;5022639;28;20048;-76
2022/07/04 02:44:54;;;;;;;4.25;2.30;;;15.00;99.90;;;;;;5008307;28;20112;-77
2022/07/04 02:47:19;;;;;;;2.15;2.05;;;15.00;99.90;;;;;;5021345;28;20125;-77
2022/07/04 02:49:45;;;;;;;1.52;1.38;;;15.00;99.90;;;;;;5022202;28;20064;-76
2022/07/04 02:52:11;;;;;;;2.22;1.55;;;15.10;99.90;;;;;;5023584;28;20037;-77
2022/07/04 02:54:36;;;;;;;2.08;1.88;;;15.10;99.90;;;;;;5021096;28;20583;-77
2022/07/04 02:57:02;;;;;;;1.98;1.70;;;15.10;99.90;;;;;;5022401;28;20029;-77
2022/07/04 02:59:28;;;;;;;4.47;2.83;;;15.10;99.90;;;;;;5022527;28;20045;-76
2022/07/04 03:01:53;;;;;;;3.60;2.05;;;15.10;99.90;;;;;;5021485;28;20041;-76
2022/07/04 03:04:19;;;;;;;3.55;2.17;;;15.10;99.90;;;;;;5022359;28;20057;-76
2022/07/04 03:06:44;;;;;;;3.95;2.33;;;15.10;99.90;;;;;;5003768;28;20045;-77
2022/07/04 03:09:10;;;;;;;1.63;1.52;;;15.10;99.90;;;;;;5021473;28;20060;-76
2022/07/04 03:11:35;;;;;;;2.63;2.40;;;15.10;99.90;;;;;;5021891;28;20537;-76
2022/07/04 03:14:02;;;;;;;2.72;1.33;;;15.10;99.90;;;;;;5021908;28;20045;-76
2022/07/04 03:16:27;;;;;;;3.67;2.35;;;15.10;99.90;;;;;;5020603;28;20056;-76
2022/07/04 03:18:53;;;;;;;3.70;2.13;;;15.10;99.90;;;;;;5021291;28;20045;-76
2022/07/04 03:21:19;;;;;;;3.08;1.05;;;15.10;99.90;;;;;;5021196;28;20103;-76
2022/07/04 03:23:57;;;;;;;4.47;2.05;;;15.10;99.90;;;;;;5022259;28;20048;-76
2022/07/04 03:26:24;;;;;;;2.45;2.25;;;15.10;99.90;;;;;;5022323;28;20116;-76
2022/07/04 03:28:49;;;;;;;3.58;2.00;;;15.10;99.90;;;;;;5021981;28;20064;-77
2022/07/04 03:31:15;;;;;;;1.88;1.77;;;15.10;99.90;;;;;;5020509;28;20128;-77
2022/07/04 03:33:41;;;;;;;2.15;1.85;;;15.00;99.90;;;;;;5023047;28;20045;-76
2022/07/04 03:36:06;;;;;;;5.72;2.35;;;15.00;99.90;;;;;;5021753;28;20073;-76
2022/07/04 03:38:32;;;;;;;2.33;2.00;;;15.00;99.90;;;;;;5021941;28;20049;-76
2022/07/04 03:40:57;;;;;;;4.28;2.65;;;14.90;99.90;;;;;;5022129;28;20428;-76
2022/07/04 03:43:23;;;;;;;2.40;2.15;;;14.90;99.90;;;;;;5021243;28;20042;-76
2022/07/04 03:45:48;;;;;;;2.28;2.05;;;14.90;99.90;;;;;;5020361;28;20064;-76
2022/07/04 03:48:14;;;;;;;3.80;2.03;;;14.90;99.90;;;;;;5021471;28;20046;-76
2022/07/04 03:50:40;;;;;;;2.22;2.03;;;14.90;99.90;;;;;;5021798;28;20048;-77
2022/07/04 03:53:06;;;;;;;3.00;2.08;;;14.90;99.90;;;;;;5021334;28;20038;-76
2022/07/04 03:55:31;;;;;;;2.95;2.05;;;14.90;99.90;;;;;;5019841;28;20467;-77
2022/07/04 03:57:57;;;;;;;2.95;1.85;;;14.90;99.90;;;;;;5003394;28;20124;-77
2022/07/04 04:00:23;;;;;;;2.95;2.35;;;14.90;99.90;;;;;;5020987;28;20045;-77
2022/07/04 04:02:48;;;;;;;1.77;1.67;;;14.90;99.90;;;;;;5018725;28;20049;-77
2022/07/04 04:05:26;;;;;;;3.50;2.30;;;15.00;99.90;;;;;;5021092;28;20057;-77
2022/07/04 04:07:53;;;;;;;1.63;1.52;;;15.00;99.90;;;;;;5021442;28;20205;-77
2022/07/04 04:10:19;;;;;;;2.05;1.85;;;15.00;99.90;;;;;;5021203;28;20049;-77
2022/07/04 04:12:44;;;;;;;3.85;2.67;;;15.00;99.90;;;;;;5020534;28;20055;-77
2022/07/04 04:15:10;;;;;;;2.13;2.00;;;15.00;99.90;;;;;;5020262;28;20423;-76
2022/07/04 04:17:36;;;;;;;2.47;2.28;;;15.10;99.90;;;;;;5020013;28;20068;-76
2022/07/04 04:20:01;;;;;;;2.53;1.73;;;15.10;99.90;;;;;;5020676;28;20053;-76
2022/07/04 04:22:30;;;;;;;3.65;2.80;;;15.10;99.90;;;;;;5021202;28;20073;-77
2022/07/04 04:24:57;;;;;;;2.83;1.98;;;15.10;99.90;;;;;;5020457;28;20127;-76
2022/07/04 04:27:22;;;;;;;2.13;1.98;;;15.10;99.90;;;;;;5020452;28;20465;-76
2022/07/04 04:29:48;;;;;;;1.65;1.55;;;15.10;99.90;;;;;;5020418;28;20124;-76
2022/07/04 04:32:14;;;;;;;2.13;1.60;;;15.20;99.90;;;;;;5019647;28;20095;-77
2022/07/04 04:34:39;;;;;;;2.85;2.17;;;15.20;99.90;;;;;;5021665;28;20122;-76
2022/07/04 04:37:05;;;;;;;10.60;1.92;;;15.20;99.90;;;;;;5018754;28;20049;-76
2022/07/04 04:39:30;;;;;;;1.77;1.52;;;15.20;99.90;;;;;;5020817;28;20042;-76
2022/07/04 04:41:56;;;;;;;5.07;2.30;;;15.30;99.90;;;;;;5019463;28;20540;-77
2022/07/04 04:44:22;;;;;;;2.60;1.60;;;15.30;99.90;;;;;;5020350;28;20033;-76
2022/07/04 04:46:47;;;;;;;5.88;2.47;;;15.30;99.90;;;;;;5018142;28;20048;-76
2022/07/04 04:49:13;;;;;;;4.65;1.85;;;15.40;99.90;;;;;;5019813;28;20210;-76
2022/07/04 04:51:40;;;;;;;1.50;1.40;;;15.40;99.90;;;;;;5018825;28;20056;-76
2022/07/04 04:54:05;;;;;;;3.42;1.67;;;15.40;99.90;;;;;;5020816;28;20116;-76
2022/07/04 04:56:31;;;;;;;2.15;1.23;;;15.50;99.90;;;;;;5020151;28;20180;-76
2022/07/04 04:58:56;;;;;;;1.67;1.13;;;15.50;99.90;;;;;;5019943;28;20142;-77
2022/07/04 05:01:22;;;;;;;2.47;2.25;;;15.50;99.90;;;;;;5018259;28;20056;-76
2022/07/04 05:03:48;;;;;;;3.75;1.95;;;15.60;99.90;;;;;;5018797;28;20064;-77
2022/07/04 05:06:13;;;;;;;3.03;1.30;;;15.60;99.90;;;;;;5019629;28;20419;-77
2022/07/04 05:08:39;;;;;;;4.05;1.52;;;15.70;99.90;;;;;;5020247;28;20053;-77
2022/07/04 05:11:05;;;;;;;2.80;1.70;;;15.70;99.90;;;;;;5015318;28;20518;-77
2022/07/04 05:13:30;;;;;;;5.18;1.98;;;15.80;99.90;;;;;;5019441;28;20042;-79
2022/07/04 05:15:56;;;;;;;4.60;2.25;;;15.80;99.90;;;;;;5017471;28;20053;-77
2022/07/04 05:18:22;;;;;;;1.42;1.20;;;15.80;99.90;;;;;;5019130;28;20419;-77
2022/07/04 05:20:48;;;;;;;1.48;1.38;;;15.90;99.90;;;;;;5019678;28;20272;-77
2022/07/04 05:23:13;;;;;;;2.30;1.90;;;15.90;99.90;;;;;;5020057;28;20041;-77
2022/07/04 05:25:39;;;;;;;2.78;2.30;;;16.00;99.90;;;;;;5020759;28;20045;-77
2022/07/04 05:28:05;;;;;;;1.73;1.23;;;16.00;99.90;;;;;;5002056;28;20085;-77
2022/07/04 05:30:31;;;;;;;6.60;1.75;;;16.00;99.90;;;;;;5022078;28;20045;-77
2022/07/04 05:32:58;;;;;;;1.88;1.60;;;16.10;99.90;;;;;;5021979;28;20099;-77
2022/07/04 05:35:24;;;;;;;2.10;1.88;;;16.10;99.90;;;;;;5024196;28;20084;-77
2022/07/04 05:37:49;;;;;;;1.70;1.27;;;16.20;99.90;;;;;;5023901;28;20077;-77
2022/07/04 05:40:15;;;;;;;6.53;1.45;;;16.20;99.90;;;;;;5023916;28;20539;-77
2022/07/04 05:42:40;;;;;;;0.93;0.88;;;16.30;99.90;;;;;;5024576;28;20074;-77
2022/07/04 05:45:07;;;;;;;3.90;1.55;;;16.30;99.90;;;;;;5023526;28;20045;-77
2022/07/04 05:47:33;;;;;;;4.40;1.67;;;16.40;99.90;;;;;;5021442;28;20080;-77
2022/07/04 05:50:00;;;;;;;3.40;1.73;;;16.40;99.90;;;;;;5023471;28;20073;-77
2022/07/04 05:52:25;;;;;;;1.42;1.33;;;16.40;99.90;;;;;;5022255;28;20037;-77
2022/07/04 05:54:51;;;;;;;3.00;1.20;;;16.50;99.90;;;;;;5021688;28;20106;-77
2022/07/04 05:57:16;;;;;;;6.22;1.98;;;16.60;99.90;;;;;;5023144;28;20037;-78
2022/07/04 05:59:44;;;;;;;7.45;1.77;;;16.60;99.90;;;;;;5022051;28;20052;-84
2022/07/04 06:02:10;;;;;;;3.22;1.45;;;16.70;99.90;;;;;;5000891;28;20041;-78
2022/07/04 06:04:35;;;;;;;4.10;2.22;;;16.70;99.90;;;;;;5020529;28;20119;-82
2022/07/04 06:07:02;;;;;;;1.95;1.23;;;16.70;99.90;;;;;;5034978;28;20033;-78
2022/07/04 06:09:27;;;;;;;2.47;1.38;;;16.80;99.90;;;;;;5023430;28;20045;-82
2022/07/04 06:11:53;;;;;;;1.30;1.20;;;16.80;99.90;;;;;;5021956;28;20041;-82
2022/07/04 06:14:18;;;;;;;1.90;1.70;;;16.90;99.90;;;;;;5006876;28;20053;-82
2022/07/04 06:16:44;;;;;;;3.38;1.60;;;17.00;99.90;;;;;;5000591;28;20138;-78
2022/07/04 06:19:10;;;;;;;4.82;1.98;;;17.10;99.90;;;;;;5009616;28;20037;-78
2022/07/04 06:21:35;;;;;;;5.05;2.20;;;17.20;99.90;;;;;;5023306;28;20228;-78
2022/07/04 06:24:02;;;;;;;2.25;1.70;;;17.20;99.90;;;;;;5022946;28;20733;-78
2022/07/04 06:26:28;;;;;;;1.65;1.55;;;17.30;99.90;;;;;;5021670;28;20045;-78
2022/07/04 06:28:54;;;;;;;1.17;1.08;;;17.30;99.90;;;;;;5012414;28;20490;-78
2022/07/04 06:31:19;;;;;;;1.95;1.33;;;17.30;99.90;;;;;;5009765;28;20429;-79
2022/07/04 06:36:30;;;;;;;1.30;1.20;;;17.30;99.90;;;;;;5008907;28;20452;-78
2022/07/04 06:38:55;;;;;;;5.88;1.17;;;17.30;99.90;;;;;;5002952;28;20571;-79
2022/07/04 06:41:21;;;;;;;2.42;0.90;;;17.30;99.90;;;;;;5001754;28;20038;-78
2022/07/04 06:43:47;;;;;;;0.85;0.82;;;17.30;99.90;;;;;;5007552;28;20092;-77
2022/07/04 06:46:12;;;;;;;2.50;1.00;;;17.30;99.90;;;;;;5025202;28;20475;-77
2022/07/04 06:48:38;;;;;;;0.88;0.88;;;17.30;99.90;;;;;;5022252;28;20683;-77
2022/07/04 06:51:03;;;;;;;2.72;1.02;;;17.40;99.90;;;;;;4999897;28;20053;-78
2022/07/04 06:53:29;;;;;;;1.38;0.85;;;17.40;99.90;;;;;;5022640;28;20037;-79
2022/07/04 06:55:55;;;;;;;0.70;0.70;;;17.40;99.90;;;;;;5022018;28;20041;-79
2022/07/04 06:58:20;;;;;;;0.95;0.82;;;17.50;99.90;;;;;;5023070;28;20052;-78
2022/07/04 07:00:46;;;;;;;1.13;1.00;;;17.50;99.90;;;;;;5020035;28;20052;-78
2022/07/04 07:03:11;;;;;;;1.45;1.00;;;17.60;99.90;;;;;;5019837;28;20554;-79
2022/07/04 07:05:37;;;;;;;1.85;0.57;;;17.70;99.90;;;;;;5022476;28;20042;-80
2022/07/04 07:08:06;;;;;;;0.88;0.88;;;17.80;99.90;;;;;;5020448;28;20538;-80
2022/07/04 07:10:35;;;;;;;6.28;1.55;;;17.90;99.90;;;;;;5020582;28;20053;-81
2022/07/04 07:13:01;;;;;;;2.53;1.35;;;17.90;99.90;;;;;;5015782;28;20045;-81
2022/07/04 07:15:27;;;;;;;7.75;0.80;;;17.90;99.90;;;;;;5052283;28;20094;-80
2022/07/04 07:17:53;;;;;;;1.52;0.77;;;17.90;99.90;;;;;;5021725;28;20116;-80
2022/07/04 07:20:18;;;;;;;0.40;0.40;;;17.90;99.90;;;;;;5020378;28;20042;-78
2022/07/04 07:22:44;;;;;;;0.70;0.65;;;17.90;99.90;;;;;;5021198;28;20786;-82
2022/07/04 07:25:11;;;;;;;3.80;0.60;;;17.90;99.90;;;;;;5016351;28;20103;-79
2022/07/04 07:27:38;;;;;;;0.95;0.95;;;17.90;99.90;;;;;;4999055;28;20127;-80
2022/07/04 07:30:04;;;;;;;2.85;0.77;;;18.00;99.90;;;;;;5000230;28;20907;-77
2022/07/04 07:32:30;;;;;;;0.70;0.63;;;18.00;99.90;;;;;;5000274;28;20376;-78
2022/07/04 07:34:56;;;;;;;2.45;1.33;;;18.00;99.90;;;;;;4986816;28;20060;-78
2022/07/04 07:37:22;;;;;;;0.98;0.80;;;18.10;99.90;;;;;;5008343;28;20033;-77
2022/07/04 07:39:48;;;;;;;0.40;0.40;;;18.10;99.90;;;;;;5017030;28;20411;-76
2022/07/04 07:42:13;;;;;;;0.88;0.88;;;18.10;99.90;;;;;;5006380;28;20432;-76
2022/07/04 07:44:39;;;;;;;0.82;0.77;;;18.10;99.90;;;;;;4999186;28;20126;-76
2022/07/04 07:47:05;;;;;;;1.88;0.85;;;18.10;99.90;;;;;;4998862;28;20053;-76
2022/07/04 07:49:30;;;;;;;0.70;0.70;;;18.10;99.90;;;;;;5004310;28;20085;-76
2022/07/04 07:51:56;;;;;;;1.17;0.80;;;18.10;99.90;;;;;;5001331;28;20482;-77
2022/07/04 07:54:22;;;;;;;4.60;1.23;;;18.10;99.90;;;;;;4999585;28;20041;-76
2022/07/04 07:56:47;;;;;;;0.60;0.47;;;18.10;99.90;;;;;;5000319;28;20049;-77
2022/07/04 07:59:13;;;;;;;0.63;0.52;;;18.10;99.90;;;;;;4999746;28;20567;-76
2022/07/04 08:01:39;;;;;;;0.40;0.40;;;18.10;99.90;;;;;;4996825;28;20054;-77
2022/07/04 08:06:49;;;;;;;4.63;0.98;;;18.10;99.90;;;;;;5009024;28;20054;-77
2022/07/04 08:09:15;;;;;;;0.70;0.55;;;18.20;99.90;;;;;;5016890;28;20044;-78
2022/07/04 08:11:41;;;;;;;1.27;0.80;;;18.20;99.90;;;;;;5019384;28;20037;-77
2022/07/04 08:14:07;;;;;;;1.58;0.93;;;18.20;99.90;;;;;;5015609;28;20034;-77
2022/07/04 08:16:33;;;;;;;1.02;0.90;;;18.30;99.90;;;;;;5019008;28;21012;-77
2022/07/04 08:18:59;;;;;;;0.82;0.82;;;18.30;99.90;;;;;;5019754;28;20041;-77
2022/07/04 08:21:25;;;;;;;1.02;0.90;;;18.30;99.90;;;;;;5018484;28;20167;-77
2022/07/04 08:23:50;;;;;;;0.68;0.57;;;18.40;99.90;;;;;;5009741;28;20137;-77
2022/07/04 08:26:16;;;;;;;0.70;0.70;;;18.50;99.90;;;;;;5020574;28;20060;-78
2022/07/04 08:28:42;;;;;;;5.88;0.75;;;18.50;99.90;;;;;;5020423;28;20033;-78
2022/07/04 08:31:07;;;;;;;1.38;0.80;;;18.60;99.90;;;;;;5017588;28;20503;-78
2022/07/04 08:33:33;;;;;;;0.80;0.65;;;18.60;99.90;;;;;;5018107;28;20304;-78
2022/07/04 08:35:59;;;;;;;1.13;0.70;;;18.70;99.90;;;;;;5019089;28;20080;-77
2022/07/04 08:38:24;;;;;;;3.70;1.00;;;18.80;99.90;;;;;;5018486;28;20913;-77
2022/07/04 08:40:56;;;;;;;2.92;0.63;;;18.80;99.90;;;;;;5019245;28;20049;-78
2022/07/04 08:43:25;;;;;;;3.10;1.20;;;18.80;99.90;;;;;;5019437;28;20033;-77
2022/07/04 08:45:53;;;;;;;1.48;0.77;;;18.80;99.90;;;;;;5017256;28;20052;-77
2022/07/04 08:48:28;;;;;;;0.80;0.80;;;18.90;99.90;;;;;;5019394;28;20581;-78
2022/07/04 08:51:21;;;;;;;1.10;1.00;;;18.90;99.90;;;;;;5019634;28;20065;-77
2022/07/04 08:53:51;;;;;;;0.65;0.65;;;18.80;99.90;;;;;;5016125;28;20044;-78
2022/07/04 08:59:04;;;;;;;1.10;1.00;;;18.80;99.90;;;;;;5013788;28;20267;-76
2022/07/04 09:01:31;;;;;;;0.85;0.85;;;18.70;99.90;;;;;;5022451;28;20033;-77
2022/07/04 09:03:57;;;;;;;1.08;1.02;;;18.70;99.90;;;;;;5015990;28;20046;-82
2022/07/04 09:06:24;;;;;;;0.77;0.77;;;18.70;99.90;;;;;;5018897;28;20288;-78
2022/07/04 09:08:50;;;;;;;0.88;0.70;;;18.70;99.90;;;;;;5009102;28;20310;-78
2022/07/04 09:11:15;;;;;;;4.38;1.08;;;18.70;99.90;;;;;;5015998;28;20399;-78
2022/07/04 09:13:41;;;;;;;1.38;1.23;;;18.80;99.90;;;;;;5015687;28;20139;-77
2022/07/04 09:16:06;;;;;;;1.05;0.95;;;18.80;99.90;;;;;;5016311;28;20140;-78
2022/07/04 09:18:35;;;;;;;4.00;1.35;;;18.70;99.90;;;;;;5019151;28;20034;-78
2022/07/04 09:21:04;;;;;;;0.85;0.85;;;18.70;99.90;;;;;;5015950;28;20524;-77
2022/07/04 09:23:33;;;;;;;3.63;1.20;;;18.70;99.90;;;;;;5001079;28;20044;-78
2022/07/04 09:26:11;;;;;;;0.60;0.60;;;18.70;99.90;;;;;;5004031;28;20081;-81
2022/07/04 09:28:38;;;;;;;1.05;0.82;;;18.80;99.90;;;;;;5009943;28;20041;-79
2022/07/04 09:31:19;;;;;;;0.88;0.77;;;18.90;99.90;;;;;;5004511;28;20034;-78
2022/07/04 09:33:52;;;;;;;16.95;1.38;;;19.00;99.90;;;;;;5002788;28;20053;-79
2022/07/04 09:36:23;;;;;;;1.00;0.82;;;19.00;99.90;;;;;;5008272;28;20047;-80
2022/07/04 09:39:09;;;;;;;1.60;0.80;;;19.00;99.90;;;;;;5006676;28;20046;-81
2022/07/04 09:42:00;;;;;;;1.83;1.10;;;19.00;99.90;;;;;;5009071;28;20070;-80
2022/07/04 09:44:28;;;;;;;3.20;1.40;;;19.00;99.90;;;;;;5007267;28;20034;-80
2022/07/04 09:46:54;;;;;;;2.65;1.15;;;19.00;99.90;;;;;;5006035;28;20034;-79
2022/07/04 09:49:21;;;;;;;0.75;0.75;;;19.00;99.90;;;;;;5016826;28;20060;-80
2022/07/04 09:51:49;;;;;;;1.15;0.63;;;19.00;99.90;;;;;;5015270;28;20218;-77
2022/07/04 09:54:27;;;;;;;1.27;1.05;;;18.90;99.90;;;;;;4993604;28;20463;-79
2022/07/04 09:56:55;;;;;;;0.70;0.70;;;19.00;99.90;;;;;;5009144;28;20038;-80
2022/07/04 09:59:24;;;;;;;0.90;0.82;;;19.00;99.90;;;;;;5003038;28;20046;-79
2022/07/04 10:01:50;;;;;;;1.02;0.93;;;18.90;99.90;;;;;;4993060;28;20099;-81
2022/07/04 10:04:15;;;;;;;0.98;0.65;;;18.90;99.90;;;;;;5001180;28;20130;-80
2022/07/04 10:06:43;;;;;;;0.55;0.55;;;18.90;99.90;;;;;;4992369;28;20164;-82
2022/07/04 10:09:13;;;;;;;0.65;0.65;;;19.00;99.90;;;;;;4978825;28;20049;-82
2022/07/04 10:11:40;;;;;;;0.82;0.82;;;19.00;99.90;;;;;;4992251;28;20077;-83
2022/07/04 10:14:10;;;;;;;0.60;0.60;;;19.10;99.90;;;;;;4992368;28;20049;-79
2022/07/04 10:16:38;;;;;;;1.60;0.60;;;19.00;99.90;;;;;;4993834;28;20523;-78
2022/07/04 10:19:05;;;;;;;0.70;0.70;;;19.00;99.90;;;;;;4997492;28;20353;-79
2022/07/04 10:21:31;;;;;;;1.05;0.95;;;19.00;99.90;;;;;;5000603;28;20051;-77
2022/07/04 10:23:57;;;;;;;0.60;0.60;;;19.00;99.90;;;;;;5011944;28;20061;-77
2022/07/04 10:26:23;;;;;;;0.63;0.60;;;19.00;99.90;;;;;;5020521;28;20042;-77
2022/07/04 10:28:51;;;;;;;2.70;0.70;;;19.00;99.90;;;;;;5005792;28;20034;-77
2022/07/04 10:31:20;;;;;;;0.57;0.57;;;19.10;99.90;;;;;;5021680;28;20548;-77
2022/07/04 10:33:46;;;;;;;0.95;0.73;;;19.10;99.90;;;;;;5022861;28;20077;-77
2022/07/04 10:36:17;;;;;;;0.75;0.75;;;19.10;99.90;;;;;;5000687;28;20140;-77
2022/07/04 10:38:58;;;;;;;1.02;0.63;;;19.10;99.90;;;;;;4994785;28;20049;-77
2022/07/04 10:41:24;;;;;;;1.05;0.93;;;19.10;99.90;;;;;;4993157;28;21188;-77
2022/07/04 10:44:02;;;;;;;0.43;0.43;;;19.20;99.90;;;;;;4997213;28;20065;-77
2022/07/04 10:46:37;;;;;;;1.63;0.85;;;19.20;99.90;;;;;;4996855;28;20053;-77
2022/07/04 10:49:16;;;;;;;3.83;0.77;;;19.20;99.90;;;;;;4996425;28;20403;-79
2022/07/04 10:51:47;;;;;;;1.00;0.85;;;19.30;99.90;;;;;;4996568;28;20057;-77
2022/07/04 10:54:23;;;;;;;2.40;1.25;;;19.30;99.90;;;;;;4994156;28;20125;-78
2022/07/04 10:56:50;;;;;;;0.90;0.88;;;19.40;99.90;;;;;;4996075;28;20132;-77
2022/07/04 10:59:19;;;;;;;0.90;0.90;;;19.50;99.90;;;;;;4990489;28;20061;-76
2022/07/04 11:01:46;;;;;;;1.05;0.93;;;19.60;99.90;;;;;;4986730;28;20265;-77
2022/07/04 11:04:12;;;;;;;1.05;0.95;;;19.60;99.90;;;;;;4996275;28;20131;-79
2022/07/04 11:06:43;;;;;;;0.60;0.60;;;19.60;99.90;;;;;;4996317;28;20054;-78
2022/07/04 11:09:12;;;;;;;0.82;0.70;;;19.60;99.90;;;;;;4991544;28;20049;-78
2022/07/04 11:11:48;;;;;;;3.10;1.23;;;19.60;99.90;;;;;;4993271;28;20531;-78
2022/07/04 11:14:36;;;;;;;0.50;0.50;;;19.60;99.90;;;;;;4990682;28;20617;-77
2022/07/04 11:17:19;;;;;;;0.90;0.70;;;19.50;99.90;;;;;;4992755;28;20132;-78
2022/07/04 11:19:58;;;;;;;2.35;1.05;;;19.50;99.90;;;;;;4994812;28;20038;-80
2022/07/04 11:22:24;;;;;;;0.52;0.50;;;19.50;99.90;;;;;;5019863;28;20065;-78
2022/07/04 11:24:49;;;;;;;1.75;0.82;;;19.50;99.90;;;;;;5021976;28;20048;-79
2022/07/04 11:27:15;;;;;;;1.05;0.70;;;19.50;99.90;;;;;;5021649;28;20048;-78
2022/07/04 11:29:54;;;;;;;1.05;0.63;;;19.40;99.90;;;;;;5021665;28;20046;-79
2022/07/04 11:32:21;;;;;;;0.40;0.35;;;19.40;99.90;;;;;;5022180;28;20069;-78
2022/07/04 11:34:48;;;;;;;0.52;0.52;;;19.40;99.90;;;;;;5021152;28;20049;-78
2022/07/04 11:37:14;;;;;;;4.00;0.60;;;19.50;99.90;;;;;;5019410;28;20045;-77
2022/07/04 11:39:39;;;;;;;0.32;0.30;;;19.40;99.90;;;;;;5009531;28;20046;-78
2022/07/04 11:45:03;;;;;;;0.77;0.77;;;19.40;99.90;;;;;;5021410;28;20595;-78
2022/07/04 11:47:33;;;;;;;0.32;0.32;;;19.40;99.90;;;;;;5010403;28;20053;-78
2022/07/04 11:49:59;;;;;;;1.55;0.50;;;19.40;99.90;;;;;;5011168;28;20037;-77
2022/07/04 11:52:30;;;;;;;0.40;0.40;;;19.40;99.90;;;;;;5010586;28;20168;-77
2022/07/04 11:54:57;;;;;;;0.40;0.40;;;19.40;99.90;;;;;;5014281;28;20048;-78
2022/07/04 11:57:28;;;;;;;0.20;0.20;;;19.50;99.90;;;;;;5022753;28;20069;-78
2022/07/04 12:00:00;;;;;;;1.02;0.52;;;19.40;99.90;;;;;;5015816;28;20322;-78
2022/07/04 12:02:28;;;;;;;0.57;0.57;;;19.40;99.90;;;;;;5015932;28;20150;-77
2022/07/04 12:04:56;;;;;;;0.55;0.55;;;19.50;99.90;;;;;;5016537;28;20164;-77
2022/07/04 12:07:24;;;;;;;0.40;0.40;;;19.40;99.90;;;;;;5019755;28;20037;-77
2022/07/04 12:09:50;;;;;;;1.10;0.88;;;19.40;99.90;;;;;;5020733;28;20041;-78
2022/07/04 12:12:17;;;;;;;0.32;0.32;;;19.40;99.90;;;;;;5011380;28;20040;-78
2022/07/04 12:15:03;;;;;;;2.10;0.45;;;19.40;99.90;;;;;;5038116;28;20049;-79
2022/07/04 12:17:37;;;;;;;4.25;0.93;;;19.40;99.90;;;;;;5029755;28;20038;-79
2022/07/04 12:20:13;;;;;;;4.18;1.02;;;19.40;99.90;;;;;;5019169;28;20048;-79
2022/07/04 12:22:42;;;;;;;0.55;0.50;;;19.50;99.90;;;;;;5016510;28;20048;-79
2022/07/04 12:25:29;;;;;;;0.70;0.70;;;19.50;99.90;;;;;;5020034;28;20045;-81
2022/07/04 12:27:56;;;;;;;0.88;0.80;;;19.60;99.90;;;;;;5020730;28;20077;-81
2022/07/04 12:30:22;;;;;;;0.32;0.32;;;19.60;99.90;;;;;;5017498;28;20048;-81
2022/07/04 12:32:50;;;;;;;0.70;0.57;;;19.60;99.90;;;;;;5007517;28;20071;-81
2022/07/04 12:35:34;;;;;;;0.93;0.93;;;19.60;99.90;;;;;;5015187;28;20048;-81
2022/07/04 12:38:15;;;;;;;4.43;0.63;;;19.60;99.90;;;;;;4991488;28;20041;-78
2022/07/04 12:41:03;;;;;;;0.70;0.50;;;19.60;99.90;;;;;;5011053;28;20067;-80
2022/07/04 12:43:41;;;;;;;1.73;0.47;;;19.60;99.90;;;;;;5018089;28;20052;-80
2022/07/04 12:46:09;;;;;;;1.08;0.98;;;19.50;99.90;;;;;;5012206;28;20045;-80
2022/07/04 12:48:35;;;;;;;0.35;0.35;;;19.50;99.90;;;;;;5003304;28;20046;-80
2022/07/04 12:51:20;;;;;;;0.50;0.50;;;19.50;99.90;;;;;;5000854;28;20069;-79
2022/07/04 12:53:48;;;;;;;0.60;0.57;;;19.50;99.90;;;;;;5007976;28;20475;-78
2022/07/04 12:56:37;;;;;;;0.40;0.40;;;19.50;99.90;;;;;;5022008;28;20059;-78
2022/07/04 12:59:06;;;;;;;0.55;0.52;;;19.50;99.90;;;;;;5015473;28;20058;-75
2022/07/04 13:01:32;;;;;;;0.88;0.50;;;19.50;99.90;;;;;;5018345;28;20041;-76